createdAt,value
2022-07-30T00:01:42.445Z,101052.91
2022-07-30T00:04:10.057Z,101053.09
2022-07-30T00:06:39.894Z,101051.88
2022-07-30T00:09:07.542Z,101052.47
2022-07-30T00:11:35.117Z,101041.63
2022-07-30T00:14:02.685Z,101044.00
2022-07-30T00:16:30.207Z,101049.38
2022-07-30T00:18:57.787Z,101049.03
2022-07-30T00:21:36.260Z,101052.22
2022-07-30T00:24:08.669Z,101050.69
2022-07-30T00:26:36.443Z,101048.06
2022-07-30T00:29:04.866Z,101055.00
2022-07-30T00:31:32.648Z,101045.06
2022-07-30T00:34:00.165Z,101051.53
2022-07-30T00:36:28.291Z,101057.16
2022-07-30T00:38:56.025Z,101049.91
2022-07-30T00:41:23.814Z,101051.63
2022-07-30T00:43:51.729Z,101047.38
2022-07-30T00:46:19.733Z,101050.59
2022-07-30T00:48:47.498Z,101052.13
2022-07-30T00:51:15.048Z,101051.50
2022-07-30T00:53:42.506Z,101057.84
2022-07-30T00:56:10.021Z,101058.13
2022-07-30T00:58:37.545Z,101059.75
2022-07-30T01:01:05.121Z,101061.63
2022-07-30T01:03:32.656Z,101058.59
2022-07-30T01:06:00.163Z,101054.81
2022-07-30T01:08:27.638Z,101066.75
2022-07-30T01:10:55.160Z,101057.94
2022-07-30T01:13:23.799Z,101065.25
2022-07-30T01:15:51.485Z,101051.72
2022-07-30T01:18:19.031Z,101060.53
2022-07-30T01:21:05.276Z,101058.13
2022-07-30T01:23:39.185Z,101055.97
2022-07-30T01:26:19.655Z,101055.66
2022-07-30T01:28:52.074Z,101057.38
2022-07-30T01:31:21.915Z,101050.06
2022-07-30T01:33:50.971Z,101045.81
2022-07-30T01:36:22.258Z,101046.25
2022-07-30T01:38:51.474Z,101044.72
2022-07-30T01:41:19.988Z,101040.09
2022-07-30T01:43:47.591Z,101038.25
2022-07-30T01:46:17.347Z,101034.00
2022-07-30T01:48:48.301Z,101034.34
2022-07-30T01:51:17.588Z,101027.63
2022-07-30T01:53:51.114Z,101028.56
2022-07-30T01:56:24.502Z,101035.97
2022-07-30T01:58:55.767Z,101028.75
2022-07-30T02:01:26.370Z,101045.66
2022-07-30T02:04:02.386Z,101047.25
2022-07-30T02:06:39.358Z,101051.00
2022-07-30T02:09:10.788Z,101053.06
2022-07-30T02:12:04.041Z,101053.31
2022-07-30T02:14:41.479Z,101046.34
2022-07-30T02:17:19.112Z,101051.88
2022-07-30T02:19:53.205Z,101051.84
2022-07-30T02:22:23.917Z,101042.50
2022-07-30T02:24:52.654Z,101046.69
2022-07-30T02:27:29.272Z,101049.38
2022-07-30T02:30:00.500Z,101046.34
2022-07-30T02:32:33.116Z,101052.78
2022-07-30T02:35:10.427Z,101050.75
2022-07-30T02:37:43.855Z,101057.41
2022-07-30T02:40:18.099Z,101053.53
2022-07-30T02:42:49.254Z,101053.78
2022-07-30T02:45:21.241Z,101045.75
2022-07-30T02:47:53.507Z,101052.72
2022-07-30T02:50:24.556Z,101054.38
2022-07-30T02:52:53.622Z,101052.06
2022-07-30T02:55:24.048Z,101049.53
2022-07-30T02:57:53.686Z,101046.53
2022-07-30T03:00:23.645Z,101046.97
2022-07-30T03:02:56.628Z,101044.69
2022-07-30T03:05:26.680Z,101047.53
2022-07-30T03:07:57.864Z,101045.03
2022-07-30T03:10:27.211Z,101043.63
2022-07-30T03:12:56.259Z,101044.47
2022-07-30T03:15:24.461Z,101037.88
2022-07-30T03:17:54.152Z,101031.25
2022-07-30T03:20:29.165Z,101033.09
2022-07-30T03:22:59.783Z,101034.53
2022-07-30T03:25:31.162Z,101038.47
2022-07-30T03:28:02.386Z,101033.72
2022-07-30T03:30:30.871Z,101028.88
2022-07-30T03:32:58.882Z,101028.41
2022-07-30T03:35:27.359Z,101031.41
2022-07-30T03:38:00.464Z,101030.09
2022-07-30T03:40:28.963Z,101032.03
2022-07-30T03:42:56.812Z,101037.66
2022-07-30T03:45:26.527Z,101032.59
2022-07-30T03:48:00.174Z,101030.03
2022-07-30T03:50:29.727Z,101024.13
2022-07-30T03:52:57.703Z,101023.19
2022-07-30T03:55:25.645Z,101017.09
2022-07-30T03:58:11.907Z,101022.31
2022-07-30T04:00:40.896Z,101023.38
2022-07-30T04:03:09.128Z,101032.34
2022-07-30T04:05:50.190Z,101031.41
2022-07-30T04:08:17.655Z,101027.91
2022-07-30T04:10:48.482Z,101033.31
2022-07-30T04:13:34.633Z,101035.47
2022-07-30T04:16:40.170Z,101035.66
2022-07-30T04:19:15.415Z,101041.44
2022-07-30T04:21:46.537Z,101036.38
2022-07-30T04:24:15.962Z,101045.38
2022-07-30T04:26:46.264Z,101042.28
2022-07-30T04:29:19.186Z,101039.69
2022-07-30T04:31:51.341Z,101045.91
2022-07-30T04:34:33.989Z,101055.47
2022-07-30T04:37:02.240Z,101065.19
2022-07-30T04:39:30.232Z,101054.66
2022-07-30T04:41:57.895Z,101048.47
2022-07-30T04:44:36.338Z,101056.28
2022-07-30T04:47:24.679Z,101062.44
2022-07-30T04:50:13.381Z,101061.94
2022-07-30T04:52:43.133Z,101069.69
2022-07-30T04:55:16.225Z,101070.72
2022-07-30T04:57:50.554Z,101077.28
2022-07-30T05:00:18.389Z,101073.94
2022-07-30T05:02:49.180Z,101077.28
2022-07-30T05:05:18.756Z,101079.69
2022-07-30T05:07:47.097Z,101072.34
2022-07-30T05:10:15.428Z,101072.91
2022-07-30T05:12:43.705Z,101064.50
2022-07-30T05:15:11.989Z,101077.31
2022-07-30T05:17:39.575Z,101076.38
2022-07-30T05:20:10.433Z,101076.97
2022-07-30T05:23:00.743Z,101079.16
2022-07-30T05:25:28.630Z,101083.16
2022-07-30T05:28:06.026Z,101081.16
2022-07-30T05:30:33.575Z,101083.59
2022-07-30T05:35:36.083Z,101084.34
2022-07-30T05:38:03.940Z,101086.06
2022-07-30T05:40:42.012Z,101087.03
2022-07-30T05:43:32.280Z,101088.78
2022-07-30T05:46:00.087Z,101085.69
2022-07-30T05:48:28.122Z,101082.28
2022-07-30T05:50:55.592Z,101085.09
2022-07-30T05:53:23.894Z,101080.50
2022-07-30T05:56:10.062Z,101081.38
2022-07-30T05:58:51.624Z,101084.38
2022-07-30T06:01:29.367Z,101087.97
2022-07-30T06:04:00.336Z,101090.91
2022-07-30T06:06:48.885Z,101086.53
2022-07-30T06:09:16.842Z,101093.81
2022-07-30T06:11:50.216Z,101084.19
2022-07-30T06:14:18.711Z,101086.47
2022-07-30T06:16:46.367Z,101092.44
2022-07-30T06:19:19.667Z,101094.16
2022-07-30T06:22:02.040Z,101094.78
2022-07-30T06:24:37.434Z,101101.00
2022-07-30T06:27:10.876Z,101101.50
2022-07-30T06:29:39.959Z,101110.09
2022-07-30T06:32:07.469Z,101114.66
2022-07-30T06:34:35.171Z,101114.63
2022-07-30T06:37:03.053Z,101113.31
2022-07-30T06:39:58.059Z,101124.81
2022-07-30T06:42:21.644Z,101121.78
2022-07-30T06:45:08.221Z,101121.50
2022-07-30T06:48:07.917Z,101123.25
2022-07-30T06:50:36.082Z,101123.81
2022-07-30T06:53:04.360Z,101110.94
2022-07-30T06:55:53.045Z,101125.06
2022-07-30T06:58:29.248Z,101123.84
2022-07-30T07:01:13.261Z,101123.47
2022-07-30T07:03:40.970Z,101116.56
2022-07-30T07:06:09.155Z,101118.84
2022-07-30T07:08:38.394Z,101115.63
2022-07-30T07:11:07.551Z,101114.84
2022-07-30T07:13:44.707Z,101118.47
2022-07-30T07:16:21.905Z,101119.25
2022-07-30T07:18:52.368Z,101117.59
2022-07-30T07:21:21.323Z,101110.13
2022-07-30T07:23:49.180Z,101111.25
2022-07-30T07:26:48.728Z,101118.50
2022-07-30T07:29:16.801Z,101114.56
2022-07-30T07:32:07.155Z,101112.63
2022-07-30T07:34:33.126Z,101114.56
2022-07-30T07:37:01.271Z,101114.88
2022-07-30T07:39:28.922Z,101112.34
2022-07-30T07:41:56.560Z,101114.59
2022-07-30T07:44:26.181Z,101131.44
2022-07-30T07:46:53.683Z,101120.97
2022-07-30T07:49:22.968Z,101118.22
2022-07-30T07:51:52.337Z,101122.63
2022-07-30T07:54:22.935Z,101129.88
2022-07-30T07:56:52.792Z,101119.31
2022-07-30T07:59:23.048Z,101129.28
2022-07-30T08:01:55.152Z,101125.72
2022-07-30T08:04:22.590Z,101128.50
2022-07-30T08:07:25.184Z,101129.63
2022-07-30T08:10:14.002Z,101124.63
2022-07-30T08:13:00.184Z,101134.34
2022-07-30T08:15:45.980Z,101119.91
2022-07-30T08:18:38.017Z,101116.28
2022-07-30T08:21:16.485Z,101123.50
2022-07-30T08:23:44.000Z,101124.91
2022-07-30T08:26:12.313Z,101122.91
2022-07-30T08:28:40.054Z,101117.38
2022-07-30T08:31:08.748Z,101117.06
2022-07-30T08:33:36.232Z,101121.81
2022-07-30T08:36:09.597Z,101117.59
2022-07-30T08:38:38.887Z,101121.28
2022-07-30T08:41:07.679Z,101124.84
2022-07-30T08:43:37.551Z,101123.69
2022-07-30T08:46:11.110Z,101132.09
2022-07-30T08:48:48.119Z,101120.63
2022-07-30T08:51:18.191Z,101125.59
2022-07-30T08:54:04.948Z,101124.75
2022-07-30T08:56:34.638Z,101130.09
2022-07-30T08:59:02.777Z,101121.81
2022-07-30T09:01:30.349Z,101114.44
2022-07-30T09:03:58.040Z,101133.06
2022-07-30T09:06:28.103Z,101133.97
2022-07-30T09:08:55.770Z,101122.31
2022-07-30T09:11:23.316Z,101122.41
2022-07-30T09:13:51.656Z,101128.78
2022-07-30T09:16:24.147Z,101119.78
2022-07-30T09:18:54.733Z,101130.56
2022-07-30T09:21:29.149Z,101120.88
2022-07-30T09:24:20.003Z,101108.97
2022-07-30T09:27:02.280Z,101121.06
2022-07-30T09:29:58.286Z,101121.47
2022-07-30T09:32:55.799Z,101120.31
2022-07-30T09:35:43.515Z,101112.91
2022-07-30T09:38:12.481Z,101123.94
2022-07-30T09:41:00.147Z,101122.16
2022-07-30T09:43:52.810Z,101118.19
2022-07-30T09:46:42.520Z,101115.69
2022-07-30T09:49:16.375Z,101121.53
2022-07-30T09:54:52.850Z,101107.94
2022-07-30T09:57:27.513Z,101104.88
2022-07-30T10:00:25.839Z,101115.19
2022-07-30T10:03:33.145Z,101115.06
2022-07-30T10:06:37.835Z,101115.00
2022-07-30T10:09:37.266Z,101108.81
2022-07-30T10:12:11.242Z,101103.66
2022-07-30T10:14:45.723Z,101113.34
2022-07-30T10:17:17.435Z,101113.84
2022-07-30T10:20:08.892Z,101110.16
2022-07-30T10:22:55.724Z,101112.81
2022-07-30T10:25:35.321Z,101104.88
2022-07-30T10:28:38.763Z,101095.88
2022-07-30T10:31:08.450Z,101094.00
2022-07-30T10:33:55.470Z,101090.19
2022-07-30T10:36:24.607Z,101090.53
2022-07-30T10:38:54.226Z,101089.03
2022-07-30T10:41:54.105Z,101076.44
2022-07-30T10:44:43.642Z,101084.25
2022-07-30T10:47:14.425Z,101076.44
2022-07-30T10:49:43.318Z,101084.44
2022-07-30T10:52:12.245Z,101087.16
2022-07-30T10:54:47.501Z,101087.56
2022-07-30T10:57:32.398Z,101076.16
2022-07-30T11:00:01.055Z,101078.78
2022-07-30T11:02:35.747Z,101075.03
2022-07-30T11:05:44.097Z,101082.09
2022-07-30T11:08:36.861Z,101082.28
2022-07-30T11:11:19.209Z,101070.75
2022-07-30T11:13:59.130Z,101070.06
2022-07-30T11:16:33.276Z,101069.53
2022-07-30T11:19:54.938Z,101066.69
2022-07-30T11:22:38.905Z,101076.25
2022-07-30T11:25:51.352Z,101075.25
2022-07-30T11:28:40.495Z,101065.50
2022-07-30T11:31:56.859Z,101059.66
2022-07-30T11:34:28.647Z,101073.47
2022-07-30T11:37:18.965Z,101069.22
2022-07-30T11:40:10.607Z,101069.47
2022-07-30T11:42:40.896Z,101061.91
2022-07-30T11:45:29.434Z,101063.16
2022-07-30T11:47:58.413Z,101056.63
2022-07-30T11:50:28.192Z,101059.28
2022-07-30T11:53:03.061Z,101052.09
2022-07-30T11:55:35.755Z,101048.19
2022-07-30T11:58:06.925Z,101046.28
2022-07-30T12:00:41.640Z,101043.78
2022-07-30T12:03:13.828Z,101039.72
2022-07-30T12:05:42.155Z,101041.25
2022-07-30T12:08:33.337Z,101036.34
2022-07-30T12:11:00.883Z,101035.91
2022-07-30T12:13:45.237Z,101031.44
2022-07-30T12:16:17.618Z,101031.19
2022-07-30T12:18:47.123Z,101041.41
2022-07-30T12:21:18.886Z,101040.50
2022-07-30T12:24:04.295Z,101032.00
2022-07-30T12:26:34.380Z,101029.91
2022-07-30T12:29:13.659Z,101024.09
2022-07-30T12:31:41.822Z,101022.88
2022-07-30T12:34:23.107Z,101025.19
2022-07-30T12:36:50.759Z,101023.78
2022-07-30T12:39:27.405Z,101039.66
2022-07-30T12:41:58.848Z,101029.75
2022-07-30T12:44:38.689Z,101026.44
2022-07-30T12:47:19.392Z,101028.41
2022-07-30T12:49:49.563Z,101022.91
2022-07-30T12:52:28.699Z,101014.56
2022-07-30T12:55:08.719Z,101006.13
2022-07-30T12:58:10.555Z,101002.53
2022-07-30T13:00:44.177Z,101003.59
2022-07-30T13:03:23.131Z,100997.97
2022-07-30T13:05:55.714Z,100997.88
2022-07-30T13:08:56.790Z,100993.03
2022-07-30T13:11:26.577Z,100995.28
2022-07-30T13:13:54.353Z,100985.88
2022-07-30T13:16:21.946Z,100992.56
2022-07-30T13:18:49.594Z,100988.97
2022-07-30T13:21:17.131Z,100980.78
2022-07-30T13:23:44.701Z,100979.47
2022-07-30T13:26:12.366Z,100979.75
2022-07-30T13:28:40.668Z,100971.69
2022-07-30T13:31:08.732Z,100974.34
2022-07-30T13:33:37.094Z,100984.72
2022-07-30T13:36:05.549Z,100969.28
2022-07-30T13:38:33.582Z,100970.22
2022-07-30T13:41:02.872Z,100964.59
2022-07-30T13:43:33.518Z,100953.53
2022-07-30T13:46:03.182Z,100959.53
2022-07-30T13:48:31.430Z,100955.91
2022-07-30T13:51:01.267Z,100958.66
2022-07-30T13:53:30.309Z,100952.50
2022-07-30T13:55:59.525Z,100950.22
2022-07-30T13:58:27.835Z,100943.78
2022-07-30T14:00:55.411Z,100945.66
2022-07-30T14:03:22.847Z,100944.84
2022-07-30T14:05:50.332Z,100932.59
2022-07-30T14:08:17.872Z,100939.19
2022-07-30T14:10:45.350Z,100932.13
2022-07-30T14:13:19.148Z,100933.31
2022-07-30T14:15:48.642Z,100930.97
2022-07-30T14:18:16.836Z,100925.34
2022-07-30T14:20:48.421Z,100930.00
2022-07-30T14:23:17.225Z,100921.06
2022-07-30T14:25:45.034Z,100922.75
2022-07-30T14:28:13.004Z,100920.88
2022-07-30T14:30:40.491Z,100913.34
2022-07-30T14:33:08.314Z,100907.88
2022-07-30T14:35:36.004Z,100907.59
2022-07-30T14:38:03.622Z,100905.22
2022-07-30T14:40:31.239Z,100910.78
2022-07-30T14:42:59.461Z,100909.44
2022-07-30T14:45:27.047Z,100915.59
2022-07-30T14:47:56.433Z,100917.63
2022-07-30T14:50:23.912Z,100915.19
2022-07-30T14:52:52.086Z,100910.00
2022-07-30T14:55:19.687Z,100914.63
2022-07-30T14:57:47.616Z,100904.66
2022-07-30T15:00:15.528Z,100907.81
2022-07-30T15:02:43.061Z,100909.31
2022-07-30T15:05:10.569Z,100902.28
2022-07-30T15:07:38.076Z,100896.13
2022-07-30T15:10:07.361Z,100892.66
2022-07-30T15:12:35.002Z,100895.63
2022-07-30T15:15:07.708Z,100884.47
2022-07-30T15:17:38.811Z,100885.03
2022-07-30T15:20:09.123Z,100885.13
2022-07-30T15:22:36.996Z,100881.41
2022-07-30T15:25:05.538Z,100887.78
2022-07-30T15:27:34.226Z,100885.19
2022-07-30T15:30:02.575Z,100878.13
2022-07-30T15:32:30.238Z,100880.13
2022-07-30T15:34:58.805Z,100877.53
2022-07-30T15:37:26.653Z,100880.91
2022-07-30T15:39:54.097Z,100879.00
2022-07-30T15:42:21.611Z,100878.13
2022-07-30T15:45:14.281Z,100876.84
2022-07-30T15:47:37.374Z,100875.81
2022-07-30T15:50:05.597Z,100881.81
2022-07-30T15:52:34.459Z,100878.41
2022-07-30T15:55:04.317Z,100873.22
2022-07-30T15:57:32.001Z,100872.56
2022-07-30T15:59:59.824Z,100870.41
2022-07-30T16:02:27.373Z,100866.91
2022-07-30T16:04:54.966Z,100871.94
2022-07-30T16:07:22.452Z,100867.00
2022-07-30T16:09:49.939Z,100870.50
2022-07-30T16:12:17.406Z,100871.66
2022-07-30T16:14:44.930Z,100865.53
2022-07-30T16:17:14.252Z,100864.25
2022-07-30T16:19:44.772Z,100863.97
2022-07-30T16:22:14.950Z,100868.00
2022-07-30T16:24:50.049Z,100863.28
2022-07-30T16:27:17.775Z,100870.31
2022-07-30T16:29:45.233Z,100872.31
2022-07-30T16:32:12.736Z,100866.41
2022-07-30T16:34:40.165Z,100869.28
2022-07-30T16:37:07.598Z,100861.31
2022-07-30T16:39:35.113Z,100852.59
2022-07-30T16:42:04.531Z,100860.72
2022-07-30T16:44:34.128Z,100859.06
2022-07-30T16:47:01.661Z,100847.78
2022-07-30T16:49:30.328Z,100847.88
2022-07-30T16:51:57.831Z,100842.53
2022-07-30T16:54:25.395Z,100844.06
2022-07-30T16:56:52.940Z,100843.47
2022-07-30T16:59:20.676Z,100835.63
2022-07-30T17:01:48.906Z,100836.13
2022-07-30T17:04:16.431Z,100834.56
2022-07-30T17:06:44.436Z,100846.78
2022-07-30T17:09:15.781Z,100844.22
2022-07-30T17:11:47.573Z,100844.94
2022-07-30T17:14:22.296Z,100845.41
2022-07-30T17:16:49.891Z,100843.13
2022-07-30T17:19:17.419Z,100849.66
2022-07-30T17:21:44.883Z,100852.38
2022-07-30T17:24:13.637Z,100847.44
2022-07-30T17:26:46.703Z,100858.41
2022-07-30T17:29:15.898Z,100854.72
2022-07-30T17:31:44.703Z,100843.03
2022-07-30T17:34:14.430Z,100838.19
2022-07-30T17:36:51.989Z,100844.06
2022-07-30T17:40:04.097Z,100847.16
2022-07-30T17:42:11.329Z,100843.44
2022-07-30T17:44:41.448Z,100840.22
2022-07-30T17:47:15.199Z,100843.25
2022-07-30T17:49:44.347Z,100853.44
2022-07-30T17:52:11.925Z,100856.66
2022-07-30T17:54:39.583Z,100848.09
2022-07-30T17:57:07.529Z,100853.34
2022-07-30T17:59:34.984Z,100853.88
2022-07-30T18:02:04.310Z,100855.09
2022-07-30T18:04:32.505Z,100868.13
2022-07-30T18:07:00.430Z,100869.28
2022-07-30T18:09:27.969Z,100870.06
2022-07-30T18:11:55.634Z,100871.22
2022-07-30T18:14:24.091Z,100877.91
2022-07-30T18:16:52.255Z,100882.34
2022-07-30T18:19:22.528Z,100887.69
2022-07-30T18:22:02.185Z,100883.91
2022-07-30T18:24:30.653Z,100889.44
2022-07-30T18:26:58.083Z,100895.09
2022-07-30T18:29:25.507Z,100884.94
2022-07-30T18:31:53.029Z,100890.31
2022-07-30T18:34:20.463Z,100898.19
2022-07-30T18:36:51.147Z,100891.09
2022-07-30T18:39:18.695Z,100892.31
2022-07-30T18:41:46.052Z,100894.06
2022-07-30T18:44:13.583Z,100900.31
2022-07-30T18:46:41.052Z,100900.31
2022-07-30T18:49:33.848Z,100905.78
2022-07-30T18:51:56.992Z,100908.53
2022-07-30T18:54:24.430Z,100906.09
2022-07-30T18:56:51.854Z,100910.22
2022-07-30T18:59:19.381Z,100920.00
2022-07-30T19:01:46.811Z,100930.41
2022-07-30T19:04:14.351Z,100918.66
2022-07-30T19:06:41.817Z,100929.34
2022-07-30T19:09:13.028Z,100928.34
2022-07-30T19:11:46.072Z,100932.53
2022-07-30T19:14:14.613Z,100936.44
2022-07-30T19:16:43.383Z,100939.22
2022-07-30T19:19:13.649Z,100951.66
2022-07-30T19:21:41.581Z,100950.97
2022-07-30T19:24:10.001Z,100953.50
2022-07-30T19:26:39.729Z,100967.94
2022-07-30T19:29:08.031Z,100963.34
2022-07-30T19:31:36.007Z,100967.69
2022-07-30T19:34:04.364Z,100972.94
2022-07-30T19:36:31.922Z,100976.81
2022-07-30T19:39:00.715Z,100973.91
2022-07-30T19:41:46.890Z,100985.34
2022-07-30T19:44:19.055Z,100980.28
2022-07-30T19:46:48.720Z,100986.91
2022-07-30T19:49:19.564Z,100986.19
2022-07-30T19:54:34.622Z,100985.38
2022-07-30T19:57:04.613Z,100995.00
2022-07-30T19:59:45.420Z,101000.31
2022-07-30T20:02:19.615Z,101008.47
2022-07-30T20:04:50.101Z,101004.66
2022-07-30T20:07:17.744Z,101009.72
2022-07-30T20:09:45.242Z,101011.50
2022-07-30T20:12:16.004Z,101006.75
2022-07-30T20:14:44.854Z,101014.97
2022-07-30T20:17:12.383Z,101019.38
2022-07-30T20:19:47.605Z,101025.06
2022-07-30T20:22:16.978Z,101023.59
2022-07-30T20:24:45.371Z,101023.41
2022-07-30T20:27:36.613Z,101026.44
2022-07-30T20:30:01.409Z,101025.38
2022-07-30T20:32:29.301Z,101028.91
2022-07-30T20:34:57.238Z,101030.34
2022-07-30T20:37:27.432Z,101027.13
2022-07-30T20:39:55.753Z,101033.09
2022-07-30T20:42:24.639Z,101039.69
2022-07-30T20:44:57.044Z,101035.41
2022-07-30T20:47:34.389Z,101027.88
2022-07-30T20:50:14.354Z,101040.19
2022-07-30T20:52:44.922Z,101035.94
2022-07-30T20:55:19.157Z,101031.59
2022-07-30T20:57:57.285Z,101034.13
2022-07-30T21:00:36.881Z,101031.91
2022-07-30T21:03:05.492Z,101034.22
2022-07-30T21:05:35.510Z,101033.97
2022-07-30T21:08:03.236Z,101043.41
2022-07-30T21:10:30.760Z,101043.19
2022-07-30T21:13:03.021Z,101053.13
2022-07-30T21:15:32.962Z,101053.59
2022-07-30T21:18:01.816Z,101054.69
2022-07-30T21:20:32.609Z,101058.47
2022-07-30T21:23:10.294Z,101058.69
2022-07-30T21:26:01.589Z,101055.59
2022-07-30T21:28:28.550Z,101050.34
2022-07-30T21:30:57.220Z,101044.94
2022-07-30T21:33:27.024Z,101046.63
2022-07-30T21:35:59.592Z,101038.44
2022-07-30T21:38:27.708Z,101052.41
2022-07-30T21:40:56.119Z,101048.00
2022-07-30T21:43:30.011Z,101056.88
2022-07-30T21:46:12.962Z,101064.97
2022-07-30T21:48:43.239Z,101074.94
2022-07-30T21:51:12.247Z,101059.75
2022-07-30T21:53:45.066Z,101064.81
2022-07-30T21:56:15.085Z,101062.41
2022-07-30T21:58:44.147Z,101063.44
2022-07-30T22:01:18.069Z,101062.22
2022-07-30T22:04:03.246Z,101079.53
2022-07-30T22:06:36.632Z,101075.53
2022-07-30T22:09:19.762Z,101085.84
2022-07-30T22:11:54.162Z,101092.34
2022-07-30T22:14:21.637Z,101095.13
2022-07-30T22:16:49.158Z,101103.72
2022-07-30T22:19:17.289Z,101093.84
2022-07-30T22:21:46.651Z,101101.59
2022-07-30T22:24:28.955Z,101100.38
2022-07-30T22:27:01.760Z,101100.81
2022-07-30T22:29:43.061Z,101105.94
2022-07-30T22:32:12.350Z,101099.56
2022-07-30T22:34:39.870Z,101102.66
2022-07-30T22:37:12.631Z,101093.56
2022-07-30T22:39:50.935Z,101093.16
2022-07-30T22:42:24.556Z,101093.09
2022-07-30T22:44:55.471Z,101091.97
2022-07-30T22:47:50.794Z,101094.72
2022-07-30T22:50:11.632Z,101093.34
2022-07-30T22:52:52.384Z,101096.03
2022-07-30T22:55:26.593Z,101098.56
2022-07-30T22:57:54.414Z,101092.56
2022-07-30T23:00:27.342Z,101102.09
2022-07-30T23:02:56.896Z,101103.59
2022-07-30T23:05:24.591Z,101102.72
2022-07-30T23:07:52.252Z,101106.56
2022-07-30T23:10:21.036Z,101109.19
2022-07-30T23:12:15.293Z,100987.66
2022-07-30T23:12:52.009Z,101111.78
2022-07-30T23:15:20.449Z,101126.03
2022-07-30T23:17:48.059Z,101134.56
2022-07-30T23:20:20.487Z,101135.19
2022-07-30T23:22:49.066Z,101133.47
2022-07-30T23:25:17.103Z,101134.59
2022-07-30T23:27:46.787Z,101137.91
2022-07-30T23:30:14.921Z,101135.94
2022-07-30T23:32:42.416Z,101137.34
2022-07-30T23:35:10.255Z,101143.16
2022-07-30T23:37:48.217Z,101152.63
2022-07-30T23:40:18.690Z,101152.91
2022-07-30T23:42:50.104Z,101142.88
2022-07-30T23:45:17.790Z,101145.38
2022-07-30T23:48:02.139Z,101138.16
2022-07-30T23:50:32.040Z,101141.94
2022-07-30T23:53:00.734Z,101140.06
2022-07-30T23:55:29.528Z,101139.53
2022-07-30T23:57:58.053Z,101148.19
